Upstream stations:
Downstream station:
SHEF ID: SASO2 Little River near Sasakwa, OK
STATION TYPE:
Regulating: Stage = 26.00, Flow = 14115
STAGE RIV-FLOW BAT-LOAD
ft cfs volt
Ccp-Rev Ccp-Rev Ccp-Rev
(US/Central)
03/01 00:00 3.58 112 12.33
03/01 01:00 3.58 112 12.33
03/01 02:00 3.57 111 12.25
03/01 03:00 3.59 114 12.25
03/01 04:00 3.58 112 12.25
03/01 05:00 3.56 109 12.17
03/01 06:00 3.55 107 12.17
03/01 07:00 3.56 109 12.17
03/01 08:00 3.57 111 12.17
03/01 09:00 3.58 112 12.17
03/01 10:00 3.59 114 12.25
03/01 11:00 3.55 107 12.41
03/01 12:00 3.57 111 12.65
03/01 13:00 3.59 114 13.60
03/01 14:00 3.56 109 13.68
03/01 15:00 3.55 107 13.44
03/01 16:00 3.52 102 13.29
03/01 17:00 3.52 102 12.73
03/01 18:00 3.50 99 12.81
03/01 19:00 3.47 94 12.57
03/01 20:00 3.49 97 12.49
03/01 21:00 3.48 96 12.41
03/01 22:00 3.46 93 12.41
03/01 23:00 3.46 93 12.41